FDX601 KATL-KMEM
Flight info
| Callsign | FDX601 |
|---|---|
| Flight time | 1h 3m |
| Altitude | 28000 |
| Route | NASSA2 CHOOK WASER VANZE3 |
| Aircraft | B77L/H-SDE1E2E3FGHIJ2J3J4J5M1RWXY/LB1D1 |
Departure
| Time | 2026-05-05 00:05 |
|---|---|
| Airport | Hartsfield Jackson Atlanta International Airport (KATL) |
Arrival
| Time | 2026-05-05 01:08 |
|---|---|
| Airport | Memphis International Airport (KMEM) |
| Time | Latitude | Longitude | Altitude | Speed | Heading |
|---|---|---|---|---|---|
| 2026-05-04 23:28 | 33.65366 | -84.41393 | 1011 ft | 0 kts | 40° |
| 2026-05-04 23:48 | 33.65353 | -84.41406 | 1011 ft | 4 kts | 40° |
| 2026-05-04 23:48 | 33.65333 | -84.41427 | 1011 ft | 4 kts | 40° |
| 2026-05-04 23:48 | 33.65313 | -84.41447 | 1011 ft | 2 kts | 40° |
| 2026-05-04 23:48 | 33.65303 | -84.41465 | 1011 ft | 4 kts | 110° |
| 2026-05-04 23:49 | 33.65316 | -84.41493 | 1011 ft | 4 kts | 123° |
| 2026-05-04 23:49 | 33.65322 | -84.41505 | 1011 ft | 1 kts | 121° |
| 2026-05-04 23:49 | 33.65323 | -84.41506 | 1011 ft | 0 kts | 121° |
| 2026-05-04 23:55 | 33.65321 | -84.41503 | 1011 ft | 0 kts | 121° |
| 2026-05-04 23:56 | 33.65319 | -84.41498 | 1011 ft | 1 kts | 121° |
| 2026-05-04 23:56 | 33.65307 | -84.41473 | 1011 ft | 6 kts | 121° |
| 2026-05-04 23:56 | 33.65284 | -84.41428 | 1011 ft | 6 kts | 121° |
| 2026-05-04 23:56 | 33.65260 | -84.41382 | 1011 ft | 6 kts | 127° |
| 2026-05-04 23:57 | 33.65220 | -84.41360 | 1011 ft | 6 kts | 171° |
| 2026-05-04 23:57 | 33.65175 | -84.41356 | 1011 ft | 6 kts | 177° |
| 2026-05-04 23:57 | 33.65135 | -84.41337 | 1011 ft | 7 kts | 128° |
| 2026-05-04 23:57 | 33.65122 | -84.41285 | 1011 ft | 7 kts | 98° |
| 2026-05-04 23:58 | 33.65120 | -84.41225 | 1010 ft | 8 kts | 89° |
| 2026-05-04 23:58 | 33.65121 | -84.41147 | 1011 ft | 10 kts | 89° |
| 2026-05-04 23:58 | 33.65122 | -84.41057 | 1011 ft | 11 kts | 91° |
| 2026-05-04 23:58 | 33.65093 | -84.40973 | 1011 ft | 11 kts | 145° |
| 2026-05-04 23:59 | 33.65015 | -84.40962 | 1011 ft | 11 kts | 179° |
| 2026-05-04 23:59 | 33.64936 | -84.40962 | 1010 ft | 11 kts | 180° |
| 2026-05-04 23:59 | 33.64860 | -84.40943 | 1010 ft | 11 kts | 137° |
| 2026-05-04 23:59 | 33.64847 | -84.40851 | 1010 ft | 11 kts | 91° |
| 2026-05-05 00:00 | 33.64847 | -84.40756 | 1011 ft | 11 kts | 90° |
| 2026-05-05 00:00 | 33.64847 | -84.40692 | 1011 ft | 11 kts | 90° |
| 2026-05-05 00:00 | 33.64817 | -84.40577 | 1011 ft | 11 kts | 150° |
| 2026-05-05 00:00 | 33.64795 | -84.40571 | 1010 ft | 0 kts | 174° |
| 2026-05-05 00:01 | 33.64794 | -84.40571 | 1010 ft | 1 kts | 174° |
| 2026-05-05 00:01 | 33.64787 | -84.40570 | 1010 ft | 2 kts | 174° |
| 2026-05-05 00:01 | 33.64749 | -84.40567 | 1009 ft | 8 kts | 177° |
| 2026-05-05 00:02 | 33.64692 | -84.40580 | 1008 ft | 9 kts | 226° |
| 2026-05-05 00:02 | 33.64680 | -84.40651 | 1008 ft | 0 kts | 268° |
| 2026-05-05 00:04 | 33.64679 | -84.40716 | 1008 ft | 33 kts | 268° |
| 2026-05-05 00:04 | 33.64676 | -84.41299 | 1013 ft | 106 kts | 269° |
| 2026-05-05 00:04 | 33.64674 | -84.42440 | 1010 ft | 164 kts | 267° |
| 2026-05-05 00:05 | 33.64676 | -84.43907 | 1324 ft | 181 kts | 273° |
| 2026-05-05 00:05 | 33.64780 | -84.45491 | 1789 ft | 196 kts | 274° |
| 2026-05-05 00:05 | 33.65037 | -84.47112 | 2486 ft | 197 kts | 279° |
| 2026-05-05 00:05 | 33.65331 | -84.48710 | 3180 ft | 198 kts | 278° |
| 2026-05-05 00:06 | 33.65611 | -84.50439 | 3425 ft | 225 kts | 278° |
| 2026-05-05 00:06 | 33.65934 | -84.52389 | 3719 ft | 250 kts | 279° |
| 2026-05-05 00:06 | 33.66305 | -84.54489 | 4346 ft | 262 kts | 280° |
| 2026-05-05 00:06 | 33.66699 | -84.56654 | 5123 ft | 268 kts | 280° |
| 2026-05-05 00:07 | 33.67102 | -84.58854 | 5952 ft | 272 kts | 279° |
| 2026-05-05 00:07 | 33.67478 | -84.61051 | 6822 ft | 272 kts | 279° |
| 2026-05-05 00:07 | 33.67855 | -84.63290 | 7649 ft | 274 kts | 279° |
| 2026-05-05 00:07 | 33.68233 | -84.65540 | 8468 ft | 276 kts | 279° |
| 2026-05-05 00:08 | 33.68617 | -84.67811 | 9328 ft | 278 kts | 279° |
| 2026-05-05 00:08 | 33.69002 | -84.70092 | 10144 ft | 279 kts | 279° |
| 2026-05-05 00:08 | 33.69396 | -84.72428 | 10618 ft | 296 kts | 279° |
| 2026-05-05 00:08 | 33.69773 | -84.74673 | 10783 ft | 320 kts | 279° |
| 2026-05-05 00:09 | 33.70002 | -84.76136 | 10882 ft | 333 kts | 277° |
| 2026-05-05 00:09 | 33.70179 | -84.79000 | 11149 ft | 354 kts | 269° |
| 2026-05-05 00:10 | 33.70157 | -84.81967 | 11823 ft | 365 kts | 268° |
| 2026-05-05 00:10 | 33.70093 | -84.85045 | 12689 ft | 371 kts | 268° |
| 2026-05-05 00:10 | 33.70035 | -84.88164 | 13673 ft | 375 kts | 268° |
| 2026-05-05 00:10 | 33.69993 | -84.91314 | 14546 ft | 379 kts | 268° |
| 2026-05-05 00:11 | 33.69967 | -84.94457 | 15427 ft | 382 kts | 269° |
| 2026-05-05 00:11 | 33.69950 | -84.97701 | 16388 ft | 384 kts | 269° |
| 2026-05-05 00:11 | 33.69938 | -85.00922 | 17288 ft | 387 kts | 269° |
| 2026-05-05 00:11 | 33.69928 | -85.04165 | 18144 ft | 390 kts | 269° |
| 2026-05-05 00:12 | 33.69918 | -85.07400 | 18914 ft | 393 kts | 269° |
| 2026-05-05 00:12 | 33.69907 | -85.10701 | 19661 ft | 396 kts | 269° |
| 2026-05-05 00:12 | 33.69895 | -85.14030 | 20382 ft | 400 kts | 270° |
| 2026-05-05 00:12 | 33.69883 | -85.17388 | 21091 ft | 404 kts | 270° |
| 2026-05-05 00:13 | 33.69868 | -85.20779 | 21787 ft | 407 kts | 270° |
| 2026-05-05 00:13 | 33.69850 | -85.24206 | 22490 ft | 411 kts | 270° |
| 2026-05-05 00:13 | 33.69817 | -85.27649 | 23174 ft | 415 kts | 270° |
| 2026-05-05 00:13 | 33.69778 | -85.31142 | 23825 ft | 418 kts | 270° |
| 2026-05-05 00:14 | 33.69735 | -85.34647 | 24361 ft | 422 kts | 270° |
| 2026-05-05 00:14 | 33.69693 | -85.38139 | 24923 ft | 425 kts | 270° |
| 2026-05-05 00:14 | 33.69650 | -85.41702 | 25505 ft | 427 kts | 270° |
| 2026-05-05 00:14 | 33.69606 | -85.45284 | 26068 ft | 430 kts | 270° |
| 2026-05-05 00:15 | 33.69561 | -85.48891 | 26663 ft | 433 kts | 270° |
| 2026-05-05 00:15 | 33.69516 | -85.52512 | 27236 ft | 435 kts | 270° |
| 2026-05-05 00:15 | 33.69469 | -85.56151 | 27783 ft | 438 kts | 270° |
| 2026-05-05 00:15 | 33.69422 | -85.59822 | 28311 ft | 441 kts | 270° |
| 2026-05-05 00:16 | 33.69372 | -85.63507 | 28851 ft | 443 kts | 270° |
| 2026-05-05 00:16 | 33.69322 | -85.67200 | 29567 ft | 441 kts | 270° |
| 2026-05-05 00:16 | 33.69270 | -85.70881 | 30360 ft | 436 kts | 270° |
| 2026-05-05 00:16 | 33.69218 | -85.74451 | 31066 ft | 431 kts | 271° |
| 2026-05-05 00:17 | 33.69166 | -85.78027 | 31755 ft | 427 kts | 271° |
| 2026-05-05 00:17 | 33.69113 | -85.81591 | 32024 ft | 427 kts | 271° |
| 2026-05-05 00:17 | 33.69060 | -85.85150 | 32001 ft | 425 kts | 271° |
| 2026-05-05 00:18 | 33.68950 | -85.92251 | 32015 ft | 425 kts | 271° |
| 2026-05-05 00:18 | 33.68837 | -85.99362 | 32010 ft | 427 kts | 271° |
| 2026-05-05 00:19 | 33.68973 | -86.06471 | 31997 ft | 425 kts | 281° |
| 2026-05-05 00:19 | 33.70242 | -86.13345 | 31992 ft | 424 kts | 284° |
| 2026-05-05 00:20 | 33.71587 | -86.20243 | 32010 ft | 423 kts | 284° |
| 2026-05-05 00:20 | 33.72870 | -86.27137 | 32000 ft | 421 kts | 284° |
| 2026-05-05 00:21 | 33.74108 | -86.34001 | 32001 ft | 419 kts | 284° |
| 2026-05-05 00:21 | 33.75323 | -86.40811 | 32001 ft | 418 kts | 284° |
| 2026-05-05 00:22 | 33.76537 | -86.47648 | 32007 ft | 417 kts | 284° |
| 2026-05-05 00:22 | 33.77747 | -86.54477 | 32006 ft | 418 kts | 284° |
| 2026-05-05 00:23 | 33.78950 | -86.61296 | 31998 ft | 416 kts | 284° |
| 2026-05-05 00:23 | 33.80146 | -86.68089 | 32003 ft | 414 kts | 284° |
| 2026-05-05 00:24 | 33.81325 | -86.74815 | 32004 ft | 412 kts | 284° |
| 2026-05-05 00:24 | 33.82504 | -86.81556 | 32003 ft | 411 kts | 284° |
| 2026-05-05 00:25 | 33.83678 | -86.88289 | 32002 ft | 411 kts | 284° |
| 2026-05-05 00:25 | 33.84849 | -86.95037 | 31962 ft | 412 kts | 284° |
| 2026-05-05 00:26 | 33.86016 | -87.01782 | 31978 ft | 410 kts | 285° |
| 2026-05-05 00:26 | 33.87168 | -87.08460 | 32003 ft | 410 kts | 285° |
| 2026-05-05 00:27 | 33.88322 | -87.15175 | 31972 ft | 409 kts | 285° |
| 2026-05-05 00:27 | 33.89472 | -87.21886 | 31987 ft | 409 kts | 285° |
| 2026-05-05 00:28 | 33.90615 | -87.28589 | 31986 ft | 409 kts | 285° |
| 2026-05-05 00:28 | 33.91753 | -87.35285 | 31989 ft | 408 kts | 285° |
| 2026-05-05 00:29 | 33.92887 | -87.41967 | 32024 ft | 407 kts | 285° |
| 2026-05-05 00:29 | 33.94680 | -87.48352 | 31975 ft | 399 kts | 302° |
| 2026-05-05 00:30 | 33.97578 | -87.54093 | 31979 ft | 403 kts | 301° |
| 2026-05-05 00:30 | 34.00368 | -87.59937 | 31974 ft | 407 kts | 300° |
| 2026-05-05 00:31 | 34.03185 | -87.65878 | 31962 ft | 409 kts | 300° |
| 2026-05-05 00:31 | 34.06017 | -87.71847 | 31921 ft | 409 kts | 300° |
| 2026-05-05 00:32 | 34.08801 | -87.77716 | 31935 ft | 398 kts | 301° |
| 2026-05-05 00:32 | 34.11552 | -87.83521 | 31939 ft | 400 kts | 301° |
| 2026-05-05 00:33 | 34.14318 | -87.89366 | 31952 ft | 402 kts | 300° |
| 2026-05-05 00:33 | 34.17070 | -87.95195 | 31954 ft | 402 kts | 300° |
| 2026-05-05 00:34 | 34.19394 | -88.00122 | 31932 ft | 403 kts | 300° |
| 2026-05-05 00:34 | 34.22678 | -88.06929 | 31950 ft | 404 kts | 302° |
| 2026-05-05 00:35 | 34.25607 | -88.12732 | 31936 ft | 403 kts | 302° |
| 2026-05-05 00:35 | 34.28512 | -88.18520 | 31938 ft | 401 kts | 302° |
| 2026-05-05 00:36 | 34.30906 | -88.23319 | 31940 ft | 400 kts | 302° |
| 2026-05-05 00:36 | 34.33732 | -88.28996 | 31925 ft | 381 kts | 302° |
| 2026-05-05 00:36 | 34.35503 | -88.32568 | 31905 ft | 369 kts | 302° |
| 2026-05-05 00:37 | 34.36399 | -88.34378 | 31569 ft | 373 kts | 302° |
| 2026-05-05 00:37 | 34.37718 | -88.37044 | 31119 ft | 372 kts | 301° |
| 2026-05-05 00:37 | 34.39049 | -88.39737 | 30620 ft | 370 kts | 301° |
| 2026-05-05 00:37 | 34.40367 | -88.42403 | 30123 ft | 368 kts | 301° |
| 2026-05-05 00:38 | 34.41681 | -88.45067 | 29570 ft | 366 kts | 301° |
| 2026-05-05 00:38 | 34.42979 | -88.47699 | 29022 ft | 363 kts | 301° |
| 2026-05-05 00:38 | 34.44269 | -88.50315 | 28547 ft | 359 kts | 301° |
| 2026-05-05 00:38 | 34.45530 | -88.52876 | 28063 ft | 356 kts | 301° |
| 2026-05-05 00:39 | 34.46798 | -88.55452 | 27622 ft | 353 kts | 301° |
| 2026-05-05 00:39 | 34.48057 | -88.58010 | 27144 ft | 353 kts | 301° |
| 2026-05-05 00:39 | 34.49316 | -88.60572 | 26694 ft | 355 kts | 301° |
| 2026-05-05 00:39 | 34.50585 | -88.63156 | 26252 ft | 357 kts | 301° |
| 2026-05-05 00:40 | 34.51860 | -88.65752 | 25798 ft | 360 kts | 300° |
| 2026-05-05 00:40 | 34.53144 | -88.68372 | 25340 ft | 362 kts | 300° |
| 2026-05-05 00:40 | 34.54417 | -88.70970 | 24907 ft | 365 kts | 300° |
| 2026-05-05 00:40 | 34.55718 | -88.73627 | 24456 ft | 367 kts | 300° |
| 2026-05-05 00:41 | 34.57027 | -88.76303 | 23998 ft | 370 kts | 300° |
| 2026-05-05 00:41 | 34.58340 | -88.78991 | 23521 ft | 370 kts | 300° |
| 2026-05-05 00:41 | 34.59653 | -88.81680 | 22985 ft | 369 kts | 300° |
| 2026-05-05 00:41 | 34.60959 | -88.84355 | 22512 ft | 366 kts | 300° |
| 2026-05-05 00:42 | 34.62249 | -88.87000 | 22056 ft | 363 kts | 300° |
| 2026-05-05 00:42 | 34.63512 | -88.89650 | 21590 ft | 360 kts | 296° |
| 2026-05-05 00:42 | 34.64367 | -88.92483 | 21150 ft | 356 kts | 285° |
| 2026-05-05 00:42 | 34.64944 | -88.95392 | 20718 ft | 354 kts | 284° |
| 2026-05-05 00:43 | 34.65517 | -88.98255 | 20296 ft | 351 kts | 285° |
| 2026-05-05 00:43 | 34.66118 | -89.01129 | 19855 ft | 349 kts | 285° |
| 2026-05-05 00:43 | 34.66731 | -89.03969 | 19434 ft | 347 kts | 285° |
| 2026-05-05 00:43 | 34.67347 | -89.06793 | 19011 ft | 345 kts | 285° |
| 2026-05-05 00:44 | 34.67966 | -89.09605 | 18579 ft | 343 kts | 286° |
| 2026-05-05 00:44 | 34.68609 | -89.12395 | 18120 ft | 342 kts | 287° |
| 2026-05-05 00:44 | 34.69259 | -89.15172 | 17649 ft | 341 kts | 287° |
| 2026-05-05 00:44 | 34.69906 | -89.17941 | 17194 ft | 338 kts | 286° |
| 2026-05-05 00:45 | 34.70535 | -89.20646 | 16833 ft | 333 kts | 286° |
| 2026-05-05 00:45 | 34.71159 | -89.23345 | 16433 ft | 330 kts | 286° |
| 2026-05-05 00:45 | 34.71779 | -89.26030 | 16015 ft | 327 kts | 286° |
| 2026-05-05 00:45 | 34.72378 | -89.28680 | 15711 ft | 323 kts | 285° |
| 2026-05-05 00:46 | 34.72961 | -89.31301 | 15428 ft | 321 kts | 285° |
| 2026-05-05 00:46 | 34.73537 | -89.33903 | 15156 ft | 323 kts | 285° |
| 2026-05-05 00:46 | 34.74125 | -89.36553 | 14844 ft | 326 kts | 285° |
| 2026-05-05 00:46 | 34.74717 | -89.39226 | 14536 ft | 327 kts | 285° |
| 2026-05-05 00:47 | 34.75309 | -89.41895 | 14220 ft | 326 kts | 285° |
| 2026-05-05 00:47 | 34.75899 | -89.44557 | 13928 ft | 325 kts | 285° |
| 2026-05-05 00:47 | 34.76487 | -89.47213 | 13612 ft | 324 kts | 285° |
| 2026-05-05 00:47 | 34.77118 | -89.49833 | 13269 ft | 320 kts | 291° |
| 2026-05-05 00:48 | 34.78172 | -89.52199 | 12967 ft | 319 kts | 301° |
| 2026-05-05 00:48 | 34.79381 | -89.54455 | 12671 ft | 317 kts | 301° |
| 2026-05-05 00:48 | 34.80567 | -89.56713 | 12370 ft | 316 kts | 300° |
| 2026-05-05 00:48 | 34.81718 | -89.58946 | 12082 ft | 315 kts | 300° |
| 2026-05-05 00:49 | 34.82872 | -89.61210 | 11799 ft | 314 kts | 300° |
| 2026-05-05 00:49 | 34.84007 | -89.63451 | 11512 ft | 305 kts | 299° |
| 2026-05-05 00:49 | 34.85100 | -89.65615 | 11210 ft | 297 kts | 299° |
| 2026-05-05 00:49 | 34.86169 | -89.67736 | 10954 ft | 291 kts | 299° |
| 2026-05-05 00:50 | 34.87215 | -89.69813 | 10678 ft | 285 kts | 299° |
| 2026-05-05 00:50 | 34.88242 | -89.71852 | 10419 ft | 279 kts | 298° |
| 2026-05-05 00:50 | 34.89249 | -89.73854 | 10159 ft | 274 kts | 298° |
| 2026-05-05 00:50 | 34.90231 | -89.75806 | 9907 ft | 268 kts | 298° |
| 2026-05-05 00:51 | 34.91187 | -89.77709 | 9653 ft | 265 kts | 298° |
| 2026-05-05 00:51 | 34.92148 | -89.79623 | 9402 ft | 264 kts | 298° |
| 2026-05-05 00:51 | 34.93107 | -89.81532 | 9136 ft | 263 kts | 298° |
| 2026-05-05 00:51 | 34.94059 | -89.83426 | 8897 ft | 261 kts | 298° |
| 2026-05-05 00:52 | 34.95250 | -89.85055 | 8676 ft | 259 kts | 324° |
| 2026-05-05 00:52 | 34.96912 | -89.85851 | 8422 ft | 258 kts | 348° |
| 2026-05-05 00:52 | 34.98684 | -89.85955 | 8178 ft | 252 kts | 355° |
| 2026-05-05 00:52 | 35.00412 | -89.85976 | 7919 ft | 245 kts | 355° |
| 2026-05-05 00:53 | 35.02108 | -89.85998 | 7626 ft | 242 kts | 355° |
| 2026-05-05 00:53 | 35.03793 | -89.86026 | 7368 ft | 242 kts | 355° |
| 2026-05-05 00:53 | 35.05487 | -89.86056 | 7077 ft | 245 kts | 355° |
| 2026-05-05 00:53 | 35.07196 | -89.86087 | 6815 ft | 247 kts | 354° |
| 2026-05-05 00:54 | 35.08918 | -89.86122 | 6522 ft | 248 kts | 354° |
| 2026-05-05 00:54 | 35.10648 | -89.86158 | 6223 ft | 248 kts | 355° |
| 2026-05-05 00:54 | 35.12335 | -89.86192 | 5902 ft | 243 kts | 355° |
| 2026-05-05 00:54 | 35.14012 | -89.86226 | 5597 ft | 240 kts | 355° |
| 2026-05-05 00:55 | 35.15685 | -89.86261 | 5304 ft | 241 kts | 355° |
| 2026-05-05 00:55 | 35.17363 | -89.86297 | 5073 ft | 241 kts | 355° |
| 2026-05-05 00:55 | 35.19047 | -89.86333 | 5040 ft | 244 kts | 355° |
| 2026-05-05 00:55 | 35.20757 | -89.86370 | 5085 ft | 247 kts | 355° |
| 2026-05-05 00:56 | 35.22485 | -89.86407 | 5058 ft | 249 kts | 355° |
| 2026-05-05 00:56 | 35.24218 | -89.86442 | 4980 ft | 248 kts | 355° |
| 2026-05-05 00:56 | 35.25928 | -89.86477 | 4976 ft | 243 kts | 355° |
| 2026-05-05 00:56 | 35.27595 | -89.86610 | 4965 ft | 237 kts | 340° |
| 2026-05-05 00:57 | 35.28987 | -89.87575 | 4979 ft | 228 kts | 306° |
| 2026-05-05 00:57 | 35.29692 | -89.89240 | 5003 ft | 218 kts | 275° |
| 2026-05-05 00:57 | 35.29834 | -89.91065 | 4998 ft | 215 kts | 268° |
| 2026-05-05 00:57 | 35.29926 | -89.92877 | 4990 ft | 216 kts | 268° |
| 2026-05-05 00:58 | 35.30015 | -89.94713 | 4982 ft | 217 kts | 268° |
| 2026-05-05 00:58 | 35.30101 | -89.96557 | 4981 ft | 217 kts | 268° |
| 2026-05-05 00:58 | 35.30184 | -89.98401 | 4977 ft | 216 kts | 268° |
| 2026-05-05 00:58 | 35.30266 | -90.00235 | 4985 ft | 215 kts | 268° |
| 2026-05-05 00:59 | 35.30351 | -90.02047 | 4987 ft | 213 kts | 268° |
| 2026-05-05 00:59 | 35.30436 | -90.03853 | 4964 ft | 212 kts | 268° |
| 2026-05-05 00:59 | 35.30525 | -90.05652 | 4738 ft | 211 kts | 271° |
| 2026-05-05 00:59 | 35.31050 | -90.07359 | 4215 ft | 226 kts | 303° |
| 2026-05-05 01:00 | 35.32319 | -90.08550 | 3843 ft | 235 kts | 331° |
| 2026-05-05 01:00 | 35.33958 | -90.08856 | 3418 ft | 246 kts | 5° |
| 2026-05-05 01:00 | 35.35527 | -90.08067 | 3079 ft | 245 kts | 41° |
| 2026-05-05 01:00 | 35.36528 | -90.06393 | 3007 ft | 249 kts | 74° |
| 2026-05-05 01:01 | 35.36699 | -90.04381 | 2984 ft | 231 kts | 107° |
| 2026-05-05 01:01 | 35.36048 | -90.02701 | 2962 ft | 209 kts | 136° |
| 2026-05-05 01:01 | 35.35012 | -90.01578 | 2974 ft | 191 kts | 155° |
| 2026-05-05 01:01 | 35.33809 | -90.00945 | 3003 ft | 189 kts | 166° |
| 2026-05-05 01:02 | 35.32575 | -90.00419 | 2983 ft | 185 kts | 166° |
| 2026-05-05 01:02 | 35.31370 | -89.99910 | 2986 ft | 182 kts | 166° |
| 2026-05-05 01:02 | 35.30162 | -89.99399 | 2986 ft | 184 kts | 166° |
| 2026-05-05 01:02 | 35.28958 | -89.98885 | 2970 ft | 183 kts | 166° |
| 2026-05-05 01:03 | 35.27757 | -89.98371 | 2977 ft | 183 kts | 167° |
| 2026-05-05 01:03 | 35.26551 | -89.97927 | 2977 ft | 179 kts | 176° |
| 2026-05-05 01:03 | 35.25309 | -89.97798 | 2991 ft | 180 kts | 180° |
| 2026-05-05 01:03 | 35.24053 | -89.97723 | 2977 ft | 181 kts | 182° |
| 2026-05-05 01:04 | 35.22814 | -89.97680 | 2983 ft | 180 kts | 182° |
| 2026-05-05 01:04 | 35.20320 | -89.97621 | 2985 ft | 179 kts | 183° |
| 2026-05-05 01:04 | 35.19074 | -89.97594 | 2985 ft | 179 kts | 183° |
| 2026-05-05 01:05 | 35.17809 | -89.97568 | 2750 ft | 183 kts | 182° |
| 2026-05-05 01:05 | 35.16535 | -89.97541 | 2524 ft | 181 kts | 183° |
| 2026-05-05 01:05 | 35.15306 | -89.97514 | 2296 ft | 171 kts | 184° |
| 2026-05-05 01:05 | 35.14166 | -89.97489 | 2089 ft | 160 kts | 182° |
| 2026-05-05 01:06 | 35.13088 | -89.97466 | 1904 ft | 149 kts | 182° |
| 2026-05-05 01:06 | 35.12120 | -89.97445 | 1717 ft | 130 kts | 184° |
| 2026-05-05 01:06 | 35.11226 | -89.97429 | 1522 ft | 127 kts | 184° |
| 2026-05-05 01:06 | 35.10338 | -89.97410 | 1389 ft | 127 kts | 182° |
| 2026-05-05 01:07 | 35.09459 | -89.97391 | 1201 ft | 127 kts | 181° |
| 2026-05-05 01:07 | 35.08576 | -89.97373 | 1060 ft | 130 kts | 181° |
| 2026-05-05 01:07 | 35.07651 | -89.97354 | 878 ft | 132 kts | 182° |
| 2026-05-05 01:07 | 35.06747 | -89.97325 | 685 ft | 126 kts | 181° |
| 2026-05-05 01:08 | 35.05894 | -89.97305 | 489 ft | 122 kts | 180° |
| 2026-05-05 01:08 | 35.05048 | -89.97291 | 384 ft | 123 kts | 180° |
| 2026-05-05 01:08 | 35.04213 | -89.97276 | 331 ft | 104 kts | 181° |
| 2026-05-05 01:08 | 35.03673 | -89.97273 | 331 ft | 47 kts | 180° |
| 2026-05-05 01:09 | 35.03372 | -89.97272 | 331 ft | 32 kts | 181° |
| 2026-05-05 01:09 | 35.03237 | -89.97339 | 331 ft | 13 kts | 226° |
| 2026-05-05 01:09 | 35.03238 | -89.97431 | 327 ft | 13 kts | 329° |
| 2026-05-05 01:09 | 35.03330 | -89.97439 | 329 ft | 13 kts | 360° |
| 2026-05-05 01:10 | 35.03424 | -89.97441 | 330 ft | 13 kts | 358° |
| 2026-05-05 01:10 | 35.03518 | -89.97444 | 330 ft | 13 kts | 359° |
| 2026-05-05 01:10 | 35.03617 | -89.97446 | 330 ft | 19 kts | 359° |
| 2026-05-05 01:10 | 35.03753 | -89.97449 | 330 ft | 19 kts | 359° |
| 2026-05-05 01:11 | 35.03881 | -89.97452 | 331 ft | 19 kts | 359° |
| 2026-05-05 01:11 | 35.04011 | -89.97455 | 331 ft | 19 kts | 359° |
| 2026-05-05 01:11 | 35.04141 | -89.97458 | 331 ft | 19 kts | 359° |
| 2026-05-05 01:11 | 35.04272 | -89.97461 | 331 ft | 19 kts | 359° |
| 2026-05-05 01:12 | 35.04402 | -89.97463 | 331 ft | 19 kts | 359° |
| 2026-05-05 01:12 | 35.04531 | -89.97466 | 330 ft | 19 kts | 359° |
| 2026-05-05 01:12 | 35.04661 | -89.97468 | 330 ft | 19 kts | 359° |
| 2026-05-05 01:12 | 35.04789 | -89.97471 | 327 ft | 19 kts | 359° |
| 2026-05-05 01:13 | 35.04919 | -89.97474 | 329 ft | 19 kts | 359° |
| 2026-05-05 01:13 | 35.05049 | -89.97477 | 328 ft | 19 kts | 359° |
| 2026-05-05 01:13 | 35.05179 | -89.97480 | 327 ft | 19 kts | 359° |
| 2026-05-05 01:13 | 35.05309 | -89.97483 | 329 ft | 19 kts | 359° |
| 2026-05-05 01:14 | 35.05439 | -89.97486 | 330 ft | 19 kts | 359° |
| 2026-05-05 01:14 | 35.05569 | -89.97490 | 331 ft | 19 kts | 359° |
| 2026-05-05 01:14 | 35.05698 | -89.97488 | 332 ft | 19 kts | 0° |
| 2026-05-05 01:14 | 35.05828 | -89.97487 | 333 ft | 19 kts | 354° |
| 2026-05-05 01:15 | 35.05953 | -89.97522 | 333 ft | 13 kts | 347° |
| 2026-05-05 01:15 | 35.05961 | -89.97524 | 333 ft | 1 kts | 347° |
| 2026-05-05 01:15 | 35.06004 | -89.97536 | 332 ft | 10 kts | 348° |
| 2026-05-05 01:15 | 35.06073 | -89.97542 | 332 ft | 10 kts | 359° |
| 2026-05-05 01:16 | 35.06142 | -89.97544 | 331 ft | 10 kts | 359° |
| 2026-05-05 01:16 | 35.06190 | -89.97494 | 331 ft | 10 kts | 75° |
| 2026-05-05 01:16 | 35.06213 | -89.97441 | 331 ft | 7 kts | 28° |
| 2026-05-05 01:16 | 35.06259 | -89.97435 | 333 ft | 1 kts | 359° |
| 2026-05-05 01:17 | 35.06264 | -89.97435 | 332 ft | 1 kts | 359° |
| 2026-05-05 01:17 | 35.06265 | -89.97435 | 333 ft | 0 kts | 359° |